Montpelier, Ohio
Current Conditions -  °F | °C
As of 12:53 PM on Saturday 25 Oct 2014 (Local Time) from KDFI Reporting Station
Clear Clear  
Wind Chill: 67°   Ceiling: Unl
Heat Index: 67°   Visibility: 9mi
Dew Point: 54°   Wind: 9mph
Humidity: 63%   Direction: 290°WNW
Pressure: 29.87"   Gusts: 18mph
Location:  41.58°N, 84.61°W
Report Text: KDFI 251653Z AUTO 29008G16KT 9SM CLR 19/12 A2987 RMK AO2 SLP114 T01940122
Loading
Personal Weather Stations






























Interactive Weather Map
Tropical Storm Tracking
New forecast layout! Learn more

10-Day Weather Forecast

Advertisements
Track Severe Weather on mobile